sensor_id;sensor_type;location;lat;lon;timestamp;temperature;humidity
33109;HTU21D;19481;51.118;6.940;2022-09-03T00:01:56;18.99;32.45
33109;HTU21D;19481;51.118;6.940;2022-09-03T00:07:02;18.85;31.83
33109;HTU21D;19481;51.118;6.940;2022-09-03T00:12:08;18.86;33.55
33109;HTU21D;19481;51.118;6.940;2022-09-03T00:17:13;18.85;31.88
33109;HTU21D;19481;51.118;6.940;2022-09-03T00:22:18;18.72;31.97
33109;HTU21D;19481;51.118;6.940;2022-09-03T00:27:23;18.80;32.99
33109;HTU21D;19481;51.118;6.940;2022-09-03T00:32:35;18.74;33.73
33109;HTU21D;19481;51.118;6.940;2022-09-03T00:37:37;18.72;32.10
33109;HTU21D;19481;51.118;6.940;2022-09-03T00:42:48;18.72;33.73
33109;HTU21D;19481;51.118;6.940;2022-09-03T00:48:04;18.66;35.21
33109;HTU21D;19481;51.118;6.940;2022-09-03T00:53:12;18.57;33.13
33109;HTU21D;19481;51.118;6.940;2022-09-03T00:58:27;18.55;35.73
33109;HTU21D;19481;51.118;6.940;2022-09-03T01:03:37;18.51;34.21
33109;HTU21D;19481;51.118;6.940;2022-09-03T01:08:51;18.47;34.70
33109;HTU21D;19481;51.118;6.940;2022-09-03T01:14:03;18.48;33.79
33109;HTU21D;19481;51.118;6.940;2022-09-03T01:19:27;18.43;35.00
33109;HTU21D;19481;51.118;6.940;2022-09-03T01:24:46;18.34;36.57
33109;HTU21D;19481;51.118;6.940;2022-09-03T01:30:03;18.42;34.92
33109;HTU21D;19481;51.118;6.940;2022-09-03T01:35:10;18.43;34.53
33109;HTU21D;19481;51.118;6.940;2022-09-03T01:40:21;18.40;34.82
33109;HTU21D;19481;51.118;6.940;2022-09-03T01:45:36;18.27;34.30
33109;HTU21D;19481;51.118;6.940;2022-09-03T01:50:47;18.17;33.71
33109;HTU21D;19481;51.118;6.940;2022-09-03T01:55:59;18.08;35.10
33109;HTU21D;19481;51.118;6.940;2022-09-03T02:01:13;18.20;34.61
33109;HTU21D;19481;51.118;6.940;2022-09-03T02:06:17;18.21;33.61
33109;HTU21D;19481;51.118;6.940;2022-09-03T02:11:20;18.20;33.70
33109;HTU21D;19481;51.118;6.940;2022-09-03T02:16:26;18.09;36.71
33109;HTU21D;19481;51.118;6.940;2022-09-03T02:21:33;18.13;34.82
33109;HTU21D;19481;51.118;6.940;2022-09-03T02:26:36;18.08;34.05
33109;HTU21D;19481;51.118;6.940;2022-09-03T02:31:39;17.97;34.44
33109;HTU21D;19481;51.118;6.940;2022-09-03T02:36:43;17.88;35.00
33109;HTU21D;19481;51.118;6.940;2022-09-03T02:41:50;17.93;36.93
33109;HTU21D;19481;51.118;6.940;2022-09-03T02:46:58;17.90;35.19
33109;HTU21D;19481;51.118;6.940;2022-09-03T02:52:02;17.85;35.18
33109;HTU21D;19481;51.118;6.940;2022-09-03T02:57:05;17.93;34.66
33109;HTU21D;19481;51.118;6.940;2022-09-03T03:02:09;17.85;34.81
33109;HTU21D;19481;51.118;6.940;2022-09-03T03:07:10;17.88;34.80
33109;HTU21D;19481;51.118;6.940;2022-09-03T03:12:12;17.78;35.04
33109;HTU21D;19481;51.118;6.940;2022-09-03T03:17:17;17.70;35.66
33109;HTU21D;19481;51.118;6.940;2022-09-03T03:22:19;17.77;35.06
33109;HTU21D;19481;51.118;6.940;2022-09-03T03:27:21;17.64;35.40
33109;HTU21D;19481;51.118;6.940;2022-09-03T03:32:25;17.62;35.52
33109;HTU21D;19481;51.118;6.940;2022-09-03T03:37:27;17.65;35.43
33109;HTU21D;19481;51.118;6.940;2022-09-03T03:42:31;17.53;36.11
33109;HTU21D;19481;51.118;6.940;2022-09-03T03:47:35;17.43;35.98
33109;HTU21D;19481;51.118;6.940;2022-09-03T03:52:36;17.46;35.89
33109;HTU21D;19481;51.118;6.940;2022-09-03T03:57:38;17.56;35.63
33109;HTU21D;19481;51.118;6.940;2022-09-03T04:02:41;17.52;35.84
33109;HTU21D;19481;51.118;6.940;2022-09-03T04:07:43;17.43;36.05
33109;HTU21D;19481;51.118;6.940;2022-09-03T04:12:44;17.35;36.21
33109;HTU21D;19481;51.118;6.940;2022-09-03T04:17:47;17.30;36.38
33109;HTU21D;19481;51.118;6.940;2022-09-03T04:22:49;17.29;36.41
33109;HTU21D;19481;51.118;6.940;2022-09-03T04:27:51;17.28;36.44
33109;HTU21D;19481;51.118;6.940;2022-09-03T04:32:54;17.18;37.37
33109;HTU21D;19481;51.118;6.940;2022-09-03T04:37:56;17.19;36.66
33109;HTU21D;19481;51.118;6.940;2022-09-03T04:42:58;17.15;36.80
33109;HTU21D;19481;51.118;6.940;2022-09-03T04:48:02;17.15;37.15
33109;HTU21D;19481;51.118;6.940;2022-09-03T04:53:04;17.15;36.85
33109;HTU21D;19481;51.118;6.940;2022-09-03T04:58:06;17.10;36.98
33109;HTU21D;19481;51.118;6.940;2022-09-03T05:03:09;17.11;37.11
33109;HTU21D;19481;51.118;6.940;2022-09-03T05:08:11;17.11;37.15
33109;HTU21D;19481;51.118;6.940;2022-09-03T05:13:12;17.22;37.00
33109;HTU21D;19481;51.118;6.940;2022-09-03T05:18:15;17.22;37.63
33109;HTU21D;19481;51.118;6.940;2022-09-03T05:23:17;17.26;37.13
33109;HTU21D;19481;51.118;6.940;2022-09-03T05:28:21;17.34;37.12
33109;HTU21D;19481;51.118;6.940;2022-09-03T05:33:24;17.47;37.46
33109;HTU21D;19481;51.118;6.940;2022-09-03T05:38:27;17.54;37.14
33109;HTU21D;19481;51.118;6.940;2022-09-03T05:43:30;17.66;36.92
33109;HTU21D;19481;51.118;6.940;2022-09-03T05:48:34;17.79;38.97
33109;HTU21D;19481;51.118;6.940;2022-09-03T05:53:37;17.92;36.76
33109;HTU21D;19481;51.118;6.940;2022-09-03T05:58:40;18.04;36.66
33109;HTU21D;19481;51.118;6.940;2022-09-03T06:03:46;18.14;37.34
33109;HTU21D;19481;51.118;6.940;2022-09-03T06:08:48;18.28;36.53
33109;HTU21D;19481;51.118;6.940;2022-09-03T06:13:51;18.42;36.41
33109;HTU21D;19481;51.118;6.940;2022-09-03T06:18:54;18.64;36.24
33109;HTU21D;19481;51.118;6.940;2022-09-03T06:23:56;19.85;34.43
33109;HTU21D;19481;51.118;6.940;2022-09-03T06:28:58;22.35;31.11
33109;HTU21D;19481;51.118;6.940;2022-09-03T06:34:01;24.41;28.95
33109;HTU21D;19481;51.118;6.940;2022-09-03T06:39:03;24.65;30.57
33109;HTU21D;19481;51.118;6.940;2022-09-03T06:44:06;24.50;30.52
33109;HTU21D;19481;51.118;6.940;2022-09-03T06:49:12;25.31;29.84
33109;HTU21D;19481;51.118;6.940;2022-09-03T06:54:13;21.88;37.01
33109;HTU21D;19481;51.118;6.940;2022-09-03T06:59:15;21.02;36.74
33109;HTU21D;19481;51.118;6.940;2022-09-03T07:04:18;20.61;36.15
33109;HTU21D;19481;51.118;6.940;2022-09-03T07:09:22;20.43;35.58
33109;HTU21D;19481;51.118;6.940;2022-09-03T07:14:24;20.46;35.05
33109;HTU21D;19481;51.118;6.940;2022-09-03T07:19:27;20.53;34.53
33109;HTU21D;19481;51.118;6.940;2022-09-03T07:24:28;20.59;34.09
33109;HTU21D;19481;51.118;6.940;2022-09-03T07:29:30;21.14;33.05
33109;HTU21D;19481;51.118;6.940;2022-09-03T07:34:33;22.57;30.67
33109;HTU21D;19481;51.118;6.940;2022-09-03T07:39:35;25.50;26.93
33109;HTU21D;19481;51.118;6.940;2022-09-03T07:44:36;25.57;28.78
33109;HTU21D;19481;51.118;6.940;2022-09-03T07:49:39;26.07;28.79
33109;HTU21D;19481;51.118;6.940;2022-09-03T07:54:41;26.40;28.04
33109;HTU21D;19481;51.118;6.940;2022-09-03T07:59:44;25.97;28.94
33109;HTU21D;19481;51.118;6.940;2022-09-03T08:04:47;25.90;26.76
33109;HTU21D;19481;51.118;6.940;2022-09-03T08:09:48;24.89;30.03
33109;HTU21D;19481;51.118;6.940;2022-09-03T08:14:51;23.97;31.48
33109;HTU21D;19481;51.118;6.940;2022-09-03T08:19:54;23.56;30.92
33109;HTU21D;19481;51.118;6.940;2022-09-03T08:24:56;23.01;31.51
33109;HTU21D;19481;51.118;6.940;2022-09-03T08:29:59;23.26;30.63
33109;HTU21D;19481;51.118;6.940;2022-09-03T08:35:06;23.16;30.68
33109;HTU21D;19481;51.118;6.940;2022-09-03T08:40:09;23.53;30.06
33109;HTU21D;19481;51.118;6.940;2022-09-03T08:45:15;23.11;30.86
33109;HTU21D;19481;51.118;6.940;2022-09-03T08:50:24;23.06;31.05
33109;HTU21D;19481;51.118;6.940;2022-09-03T08:55:28;23.47;29.96
33109;HTU21D;19481;51.118;6.940;2022-09-03T09:00:41;23.59;30.25
33109;HTU21D;19481;51.118;6.940;2022-09-03T09:05:54;23.56;30.59
33109;HTU21D;19481;51.118;6.940;2022-09-03T09:11:03;23.75;30.42
33109;HTU21D;19481;51.118;6.940;2022-09-03T09:16:12;23.95;30.39
33109;HTU21D;19481;51.118;6.940;2022-09-03T09:21:21;24.84;29.42
33109;HTU21D;19481;51.118;6.940;2022-09-03T09:26:24;24.32;30.21
33109;HTU21D;19481;51.118;6.940;2022-09-03T09:31:26;24.00;30.85
33109;HTU21D;19481;51.118;6.940;2022-09-03T09:36:40;23.14;33.04
33109;HTU21D;19481;51.118;6.940;2022-09-03T09:41:42;23.15;31.93
33109;HTU21D;19481;51.118;6.940;2022-09-03T09:46:44;22.66;33.72
33109;HTU21D;19481;51.118;6.940;2022-09-03T09:51:48;22.41;33.97
33109;HTU21D;19481;51.118;6.940;2022-09-03T09:56:58;22.36;34.86
33109;HTU21D;19481;51.118;6.940;2022-09-03T10:02:19;22.40;37.78
33109;HTU21D;19481;51.118;6.940;2022-09-03T10:07:27;22.20;35.99
33109;HTU21D;19481;51.118;6.940;2022-09-03T10:12:34;22.24;36.26
33109;HTU21D;19481;51.118;6.940;2022-09-03T10:17:39;21.78;40.12
33109;HTU21D;19481;51.118;6.940;2022-09-03T10:22:48;21.76;38.65
33109;HTU21D;19481;51.118;6.940;2022-09-03T10:27:53;21.74;35.30
33109;HTU21D;19481;51.118;6.940;2022-09-03T10:33:02;21.44;38.35
33109;HTU21D;19481;51.118;6.940;2022-09-03T10:38:11;21.50;37.95
33109;HTU21D;19481;51.118;6.940;2022-09-03T10:43:30;21.61;39.07
33109;HTU21D;19481;51.118;6.940;2022-09-03T10:49:06;21.55;40.64
33109;HTU21D;19481;51.118;6.940;2022-09-03T10:54:27;21.33;40.14
33109;HTU21D;19481;51.118;6.940;2022-09-03T10:59:41;21.72;37.50
33109;HTU21D;19481;51.118;6.940;2022-09-03T11:04:52;21.52;39.44
33109;HTU21D;19481;51.118;6.940;2022-09-03T11:10:04;21.87;37.49
33109;HTU21D;19481;51.118;6.940;2022-09-03T11:15:16;22.04;37.81
33109;HTU21D;19481;51.118;6.940;2022-09-03T11:20:20;23.11;34.34
33109;HTU21D;19481;51.118;6.940;2022-09-03T11:25:26;24.73;33.48
33109;HTU21D;19481;51.118;6.940;2022-09-03T11:30:37;25.13;33.77
33109;HTU21D;19481;51.118;6.940;2022-09-03T11:35:41;25.23;33.05
33109;HTU21D;19481;51.118;6.940;2022-09-03T11:40:57;25.72;33.07
33109;HTU21D;19481;51.118;6.940;2022-09-03T11:46:03;25.75;33.16
33109;HTU21D;19481;51.118;6.940;2022-09-03T11:51:18;26.21;32.34
33109;HTU21D;19481;51.118;6.940;2022-09-03T11:56:21;26.76;31.63
33109;HTU21D;19481;51.118;6.940;2022-09-03T12:01:25;26.70;31.90
33109;HTU21D;19481;51.118;6.940;2022-09-03T12:12:25;27.36;30.53
33109;HTU21D;19481;51.118;6.940;2022-09-03T12:17:33;27.32;31.24
33109;HTU21D;19481;51.118;6.940;2022-09-03T12:22:37;26.11;33.89
33109;HTU21D;19481;51.118;6.940;2022-09-03T12:27:43;26.09;33.65
33109;HTU21D;19481;51.118;6.940;2022-09-03T12:32:44;26.21;33.01
33109;HTU21D;19481;51.118;6.940;2022-09-03T12:37:51;26.41;32.73
33109;HTU21D;19481;51.118;6.940;2022-09-03T12:42:55;27.26;31.08
33109;HTU21D;19481;51.118;6.940;2022-09-03T12:48:12;27.16;31.45
33109;HTU21D;19481;51.118;6.940;2022-09-03T12:53:19;26.77;32.37
33109;HTU21D;19481;51.118;6.940;2022-09-03T12:58:24;26.67;32.48
33109;HTU21D;19481;51.118;6.940;2022-09-03T13:03:30;26.97;31.67
33109;HTU21D;19481;51.118;6.940;2022-09-03T13:08:43;26.99;31.40
33109;HTU21D;19481;51.118;6.940;2022-09-03T13:13:53;26.47;32.67
33109;HTU21D;19481;51.118;6.940;2022-09-03T13:18:58;27.20;31.04
33109;HTU21D;19481;51.118;6.940;2022-09-03T13:29:51;27.30;30.71
33109;HTU21D;19481;51.118;6.940;2022-09-03T13:35:03;27.54;29.84
33109;HTU21D;19481;51.118;6.940;2022-09-03T13:40:17;28.12;28.85
33109;HTU21D;19481;51.118;6.940;2022-09-03T13:45:28;27.82;29.74
33109;HTU21D;19481;51.118;6.940;2022-09-03T13:50:39;27.90;29.99
33109;HTU21D;19481;51.118;6.940;2022-09-03T13:55:44;27.93;30.19
33109;HTU21D;19481;51.118;6.940;2022-09-03T14:00:53;28.30;29.16
33109;HTU21D;19481;51.118;6.940;2022-09-03T14:06:10;27.88;30.12
33109;HTU21D;19481;51.118;6.940;2022-09-03T14:11:13;27.96;29.22
33109;HTU21D;19481;51.118;6.940;2022-09-03T14:16:24;28.08;29.23
33109;HTU21D;19481;51.118;6.940;2022-09-03T14:21:33;27.58;30.61
33109;HTU21D;19481;51.118;6.940;2022-09-03T14:26:36;27.56;31.11
33109;HTU21D;19481;51.118;6.940;2022-09-03T14:32:12;27.58;30.99
33109;HTU21D;19481;51.118;6.940;2022-09-03T14:37:34;27.87;30.65
33109;HTU21D;19481;51.118;6.940;2022-09-03T14:48:26;27.17;32.37
33109;HTU21D;19481;51.118;6.940;2022-09-03T14:53:47;27.17;32.28
33109;HTU21D;19481;51.118;6.940;2022-09-03T14:59:03;26.64;33.26
33109;HTU21D;19481;51.118;6.940;2022-09-03T15:04:24;26.51;34.82
33109;HTU21D;19481;51.118;6.940;2022-09-03T15:09:35;26.19;35.21
33109;HTU21D;19481;51.118;6.940;2022-09-03T15:14:45;26.87;33.98
33109;HTU21D;19481;51.118;6.940;2022-09-03T15:19:59;27.16;32.60
33109;HTU21D;19481;51.118;6.940;2022-09-03T15:25:11;26.91;32.90
33109;HTU21D;19481;51.118;6.940;2022-09-03T15:30:17;26.69;33.06
33109;HTU21D;19481;51.118;6.940;2022-09-03T15:35:34;26.98;33.61
33109;HTU21D;19481;51.118;6.940;2022-09-03T15:40:49;26.95;33.31
33109;HTU21D;19481;51.118;6.940;2022-09-03T15:45:54;27.17;32.19
33109;HTU21D;19481;51.118;6.940;2022-09-03T15:51:08;26.83;34.19
33109;HTU21D;19481;51.118;6.940;2022-09-03T15:56:18;26.82;33.93
33109;HTU21D;19481;51.118;6.940;2022-09-03T16:01:34;26.95;33.36
33109;HTU21D;19481;51.118;6.940;2022-09-03T16:06:49;27.07;33.36
33109;HTU21D;19481;51.118;6.940;2022-09-03T16:11:58;26.82;33.40
33109;HTU21D;19481;51.118;6.940;2022-09-03T16:17:06;26.85;32.93
33109;HTU21D;19481;51.118;6.940;2022-09-03T16:22:16;26.67;33.70
33109;HTU21D;19481;51.118;6.940;2022-09-03T16:27:22;26.63;33.03
33109;HTU21D;19481;51.118;6.940;2022-09-03T16:32:53;26.53;33.54
33109;HTU21D;19481;51.118;6.940;2022-09-03T16:38:17;26.62;33.75
33109;HTU21D;19481;51.118;6.940;2022-09-03T16:43:34;26.51;34.89
33109;HTU21D;19481;51.118;6.940;2022-09-03T16:48:47;26.28;34.09
33109;HTU21D;19481;51.118;6.940;2022-09-03T16:54:00;26.07;35.34
33109;HTU21D;19481;51.118;6.940;2022-09-03T16:59:15;26.13;35.16
33109;HTU21D;19481;51.118;6.940;2022-09-03T17:04:43;26.06;36.64
33109;HTU21D;19481;51.118;6.940;2022-09-03T17:10:02;25.96;35.95
33109;HTU21D;19481;51.118;6.940;2022-09-03T17:15:25;25.45;39.78
33109;HTU21D;19481;51.118;6.940;2022-09-03T17:20:43;24.99;41.76
33109;HTU21D;19481;51.118;6.940;2022-09-03T17:25:52;24.56;42.19
33109;HTU21D;19481;51.118;6.940;2022-09-03T17:30:57;24.12;39.54
33109;HTU21D;19481;51.118;6.940;2022-09-03T17:36:09;23.90;44.83
33109;HTU21D;19481;51.118;6.940;2022-09-03T17:41:19;23.76;42.13
33109;HTU21D;19481;51.118;6.940;2022-09-03T17:46:30;23.47;45.99
33109;HTU21D;19481;51.118;6.940;2022-09-03T17:51:40;23.32;44.78
33109;HTU21D;19481;51.118;6.940;2022-09-03T17:56:51;23.22;46.49
33109;HTU21D;19481;51.118;6.940;2022-09-03T18:02:00;22.80;49.91
33109;HTU21D;19481;51.118;6.940;2022-09-03T18:07:08;22.33;44.67
33109;HTU21D;19481;51.118;6.940;2022-09-03T18:12:25;22.06;47.12
33109;HTU21D;19481;51.118;6.940;2022-09-03T18:17:32;21.69;55.22
33109;HTU21D;19481;51.118;6.940;2022-09-03T18:22:35;21.29;59.28
33109;HTU21D;19481;51.118;6.940;2022-09-03T18:28:03;21.05;55.22
33109;HTU21D;19481;51.118;6.940;2022-09-03T18:33:24;20.95;47.78
33109;HTU21D;19481;51.118;6.940;2022-09-03T18:38:44;20.73;48.50
33109;HTU21D;19481;51.118;6.940;2022-09-03T18:44:12;20.61;54.59
33109;HTU21D;19481;51.118;6.940;2022-09-03T18:49:41;20.50;54.49
33109;HTU21D;19481;51.118;6.940;2022-09-03T18:55:10;20.43;52.93
33109;HTU21D;19481;51.118;6.940;2022-09-03T19:00:37;20.33;53.10
33109;HTU21D;19481;51.118;6.940;2022-09-03T19:06:06;20.28;52.09
33109;HTU21D;19481;51.118;6.940;2022-09-03T19:11:34;20.20;51.56
33109;HTU21D;19481;51.118;6.940;2022-09-03T19:17:02;20.14;50.63
33109;HTU21D;19481;51.118;6.940;2022-09-03T19:22:28;20.11;50.05
33109;HTU21D;19481;51.118;6.940;2022-09-03T19:27:58;20.07;51.30
33109;HTU21D;19481;51.118;6.940;2022-09-03T19:33:27;20.02;50.55
33109;HTU21D;19481;51.118;6.940;2022-09-03T19:38:58;19.96;51.53
33109;HTU21D;19481;51.118;6.940;2022-09-03T19:44:32;19.91;58.96
33109;HTU21D;19481;51.118;6.940;2022-09-03T19:50:01;19.79;57.36
33109;HTU21D;19481;51.118;6.940;2022-09-03T19:55:25;19.70;52.10
33109;HTU21D;19481;51.118;6.940;2022-09-03T20:00:45;19.65;51.09
33109;HTU21D;19481;51.118;6.940;2022-09-03T20:06:06;19.60;51.48
33109;HTU21D;19481;51.118;6.940;2022-09-03T20:11:27;19.54;51.50
33109;HTU21D;19481;51.118;6.940;2022-09-03T20:16:36;19.46;52.36
33109;HTU21D;19481;51.118;6.940;2022-09-03T20:21:46;19.37;52.98
33109;HTU21D;19481;51.118;6.940;2022-09-03T20:26:56;19.31;52.93
33109;HTU21D;19481;51.118;6.940;2022-09-03T20:32:07;19.27;52.65
33109;HTU21D;19481;51.118;6.940;2022-09-03T20:37:20;19.22;54.67
33109;HTU21D;19481;51.118;6.940;2022-09-03T20:42:52;19.18;60.76
33109;HTU21D;19481;51.118;6.940;2022-09-03T20:48:06;19.13;59.05
33109;HTU21D;19481;51.118;6.940;2022-09-03T20:53:51;19.08;55.02
33109;HTU21D;19481;51.118;6.940;2022-09-03T20:59:02;19.05;53.46
33109;HTU21D;19481;51.118;6.940;2022-09-03T21:04:20;18.96;53.49
33109;HTU21D;19481;51.118;6.940;2022-09-03T21:09:34;18.95;59.85
33109;HTU21D;19481;51.118;6.940;2022-09-03T21:14:43;18.88;53.09
33109;HTU21D;19481;51.118;6.940;2022-09-03T21:19:54;18.88;56.00
33109;HTU21D;19481;51.118;6.940;2022-09-03T21:25:04;18.83;57.95
33109;HTU21D;19481;51.118;6.940;2022-09-03T21:30:12;18.81;53.79
33109;HTU21D;19481;51.118;6.940;2022-09-03T21:35:19;18.78;53.76
33109;HTU21D;19481;51.118;6.940;2022-09-03T21:40:26;18.80;54.03
33109;HTU21D;19481;51.118;6.940;2022-09-03T21:45:34;18.77;53.84
33109;HTU21D;19481;51.118;6.940;2022-09-03T21:50:49;18.74;55.95
33109;HTU21D;19481;51.118;6.940;2022-09-03T21:56:09;18.72;57.84
33109;HTU21D;19481;51.118;6.940;2022-09-03T22:01:19;18.70;54.75
33109;HTU21D;19481;51.118;6.940;2022-09-03T22:06:26;18.67;57.29
33109;HTU21D;19481;51.118;6.940;2022-09-03T22:11:35;18.63;55.81
33109;HTU21D;19481;51.118;6.940;2022-09-03T22:16:43;18.64;54.68
33109;HTU21D;19481;51.118;6.940;2022-09-03T22:21:50;18.57;54.74
33109;HTU21D;19481;51.118;6.940;2022-09-03T22:27:03;18.56;56.88
33109;HTU21D;19481;51.118;6.940;2022-09-03T22:32:17;18.54;55.62
33109;HTU21D;19481;51.118;6.940;2022-09-03T22:37:33;18.52;55.79
33109;HTU21D;19481;51.118;6.940;2022-09-03T22:42:54;18.38;56.71
33109;HTU21D;19481;51.118;6.940;2022-09-03T22:48:08;18.40;55.96
33109;HTU21D;19481;51.118;6.940;2022-09-03T22:53:21;18.30;56.13
33109;HTU21D;19481;51.118;6.940;2022-09-03T22:58:30;18.10;56.44
33109;HTU21D;19481;51.118;6.940;2022-09-03T23:03:38;18.07;56.68
33109;HTU21D;19481;51.118;6.940;2022-09-03T23:08:45;18.03;56.62
33109;HTU21D;19481;51.118;6.940;2022-09-03T23:13:55;17.96;57.38
33109;HTU21D;19481;51.118;6.940;2022-09-03T23:19:09;17.96;56.93
33109;HTU21D;19481;51.118;6.940;2022-09-03T23:24:19;17.97;58.14
33109;HTU21D;19481;51.118;6.940;2022-09-03T23:29:29;17.98;57.31
33109;HTU21D;19481;51.118;6.940;2022-09-03T23:34:34;17.92;57.30
33109;HTU21D;19481;51.118;6.940;2022-09-03T23:39:55;17.90;61.86
33109;HTU21D;19481;51.118;6.940;2022-09-03T23:45:11;17.81;60.44
33109;HTU21D;19481;51.118;6.940;2022-09-03T23:50:27;17.72;60.02
33109;HTU21D;19481;51.118;6.940;2022-09-03T23:55:40;17.66;58.65
